createdAt,value
2023-07-06T00:01:08.101Z,2.83
2023-07-06T00:03:36.010Z,3.03
2023-07-06T00:06:09.771Z,2.53
2023-07-06T00:08:38.781Z,2.60
2023-07-06T00:11:07.072Z,2.75
2023-07-06T00:13:35.420Z,2.90
2023-07-06T00:16:04.156Z,2.70
2023-07-06T00:18:32.313Z,3.45
2023-07-06T00:21:01.441Z,2.63
2023-07-06T00:23:31.432Z,2.80
2023-07-06T00:25:59.562Z,2.90
2023-07-06T00:28:29.662Z,2.70
2023-07-06T00:31:03.920Z,3.25
2023-07-06T00:33:32.063Z,3.13
2023-07-06T00:36:01.049Z,3.33
2023-07-06T00:38:30.197Z,2.97
2023-07-06T00:40:59.561Z,2.80
2023-07-06T00:43:49.284Z,2.67
2023-07-06T00:46:17.193Z,2.90
2023-07-06T00:48:47.496Z,2.75
2023-07-06T00:51:19.713Z,3.38
2023-07-06T00:53:52.802Z,3.15
2023-07-06T00:56:24.844Z,3.65
2023-07-06T00:58:56.810Z,3.13
2023-07-06T01:01:26.587Z,3.15
2023-07-06T01:03:57.793Z,3.03
2023-07-06T01:06:30.573Z,3.20
2023-07-06T01:09:01.011Z,3.08
2023-07-06T01:11:29.548Z,3.50
2023-07-06T01:13:59.790Z,3.40
2023-07-06T01:16:34.363Z,3.40
2023-07-06T01:19:13.166Z,2.92
2023-07-06T01:21:48.008Z,3.17
2023-07-06T01:24:51.450Z,3.20
2023-07-06T01:27:39.889Z,3.65
2023-07-06T01:30:26.184Z,3.72
2023-07-06T01:33:00.144Z,3.13
2023-07-06T01:35:34.524Z,2.92
2023-07-06T01:38:03.319Z,3.00
2023-07-06T01:40:31.208Z,3.38
2023-07-06T01:43:00.628Z,3.30
2023-07-06T01:45:29.602Z,3.03
2023-07-06T01:48:02.246Z,3.28
2023-07-06T01:50:44.383Z,2.88
2023-07-06T01:53:23.587Z,3.03
2023-07-06T01:56:00.463Z,3.38
2023-07-06T01:58:35.577Z,2.78
2023-07-06T02:01:10.013Z,3.13
2023-07-06T02:03:40.813Z,3.08
2023-07-06T02:06:11.725Z,3.30
2023-07-06T02:08:42.796Z,4.18
2023-07-06T02:11:11.835Z,3.75
2023-07-06T02:13:40.382Z,3.58
2023-07-06T02:16:08.898Z,3.63
2023-07-06T02:18:36.864Z,3.63
2023-07-06T02:21:06.244Z,3.65
2023-07-06T02:23:34.833Z,3.75
2023-07-06T02:26:03.331Z,3.78
2023-07-06T02:28:31.311Z,3.80
2023-07-06T02:31:00.516Z,3.50
2023-07-06T02:33:35.172Z,3.80
2023-07-06T02:36:03.702Z,4.00
2023-07-06T02:38:35.550Z,3.40
2023-07-06T02:41:05.711Z,3.20
2023-07-06T02:43:34.054Z,3.33
2023-07-06T02:46:06.567Z,3.35
2023-07-06T02:48:34.768Z,3.53
2023-07-06T02:51:03.070Z,3.13
2023-07-06T02:53:32.898Z,3.20
2023-07-06T02:56:01.007Z,3.90
2023-07-06T02:58:29.377Z,3.63
2023-07-06T03:00:57.536Z,3.30
2023-07-06T03:03:27.685Z,3.60
2023-07-06T03:05:56.321Z,3.35
2023-07-06T03:08:24.647Z,3.97
2023-07-06T03:10:54.461Z,3.70
2023-07-06T03:13:22.428Z,3.90
2023-07-06T03:15:53.089Z,3.40
2023-07-06T03:18:21.655Z,3.40
2023-07-06T03:20:50.422Z,4.25
2023-07-06T03:23:19.309Z,3.25
2023-07-06T03:25:51.153Z,3.85
2023-07-06T03:28:20.668Z,3.53
2023-07-06T03:30:55.993Z,3.50
2023-07-06T03:33:25.873Z,3.50
2023-07-06T03:35:56.033Z,3.45
2023-07-06T03:38:26.857Z,3.50
2023-07-06T03:40:55.045Z,3.30
2023-07-06T03:43:24.461Z,3.58
2023-07-06T03:45:53.089Z,3.38
2023-07-06T03:48:23.195Z,3.90
2023-07-06T03:50:53.719Z,3.40
2023-07-06T03:53:22.875Z,3.33
2023-07-06T03:55:54.787Z,3.58
2023-07-06T03:58:24.944Z,3.72
2023-07-06T04:00:52.928Z,3.10
2023-07-06T04:03:21.024Z,3.50
2023-07-06T04:05:49.388Z,3.33
2023-07-06T04:08:19.324Z,3.45
2023-07-06T04:10:47.306Z,3.33
2023-07-06T04:13:15.910Z,2.90
2023-07-06T04:15:48.481Z,3.05
2023-07-06T04:18:17.634Z,2.90
2023-07-06T04:20:46.300Z,2.88
2023-07-06T04:23:14.284Z,2.50
2023-07-06T04:25:42.145Z,2.75
2023-07-06T04:28:12.892Z,2.20
2023-07-06T04:30:42.953Z,2.05
2023-07-06T04:33:16.892Z,2.63
2023-07-06T04:35:45.216Z,2.25
2023-07-06T04:38:13.067Z,2.35
2023-07-06T04:40:44.161Z,2.45
2023-07-06T04:43:13.143Z,2.38
2023-07-06T04:45:40.982Z,2.60
2023-07-06T04:48:09.666Z,2.35
2023-07-06T04:50:41.818Z,2.40
2023-07-06T04:53:10.826Z,2.83
2023-07-06T04:55:38.921Z,2.40
2023-07-06T04:58:07.986Z,2.67
2023-07-06T05:00:41.307Z,2.58
2023-07-06T05:03:11.880Z,2.20
2023-07-06T05:05:43.205Z,2.25
2023-07-06T05:08:14.227Z,2.08
2023-07-06T05:10:47.964Z,1.90
2023-07-06T05:13:17.431Z,2.00
2023-07-06T05:15:46.179Z,1.92
2023-07-06T05:18:14.144Z,2.00
2023-07-06T05:20:43.374Z,1.65
2023-07-06T05:23:12.371Z,1.77
2023-07-06T05:25:40.311Z,1.80
2023-07-06T05:28:12.034Z,2.38
2023-07-06T05:30:40.545Z,2.10
2023-07-06T05:33:08.543Z,1.80
2023-07-06T05:35:36.664Z,1.90
2023-07-06T05:38:08.476Z,1.95
2023-07-06T05:40:36.389Z,1.55
2023-07-06T05:43:04.277Z,1.65
2023-07-06T05:45:32.361Z,1.70
2023-07-06T05:48:00.577Z,1.48
2023-07-06T05:50:28.610Z,1.70
2023-07-06T05:52:56.778Z,1.50
2023-07-06T05:55:26.113Z,1.65
2023-07-06T05:57:54.216Z,1.60
2023-07-06T06:00:22.436Z,1.20
2023-07-06T06:02:50.608Z,1.45
2023-07-06T06:05:19.150Z,1.70
2023-07-06T06:07:47.142Z,1.63
2023-07-06T06:10:15.582Z,1.50
2023-07-06T06:12:46.266Z,1.38
2023-07-06T06:15:15.751Z,1.23
2023-07-06T06:17:45.686Z,1.80
2023-07-06T06:20:13.924Z,1.23
2023-07-06T06:22:42.390Z,1.45
2023-07-06T06:25:11.423Z,1.33
2023-07-06T06:27:39.438Z,1.13
2023-07-06T06:30:11.924Z,1.45
2023-07-06T06:32:40.613Z,1.30
2023-07-06T06:35:22.561Z,1.27
2023-07-06T06:37:51.031Z,1.20
2023-07-06T06:40:21.078Z,1.30
2023-07-06T06:42:50.565Z,1.20
2023-07-06T06:45:20.727Z,1.50
2023-07-06T06:47:49.587Z,0.98
2023-07-06T06:50:21.025Z,1.30
2023-07-06T06:52:50.324Z,1.15
2023-07-06T06:55:19.111Z,1.02
2023-07-06T06:57:47.674Z,1.00
2023-07-06T07:00:17.829Z,1.23
2023-07-06T07:02:47.163Z,1.23
2023-07-06T07:05:17.488Z,1.05
2023-07-06T07:07:45.422Z,1.20
2023-07-06T07:10:13.815Z,1.50
2023-07-06T07:12:43.279Z,1.20
2023-07-06T07:15:13.753Z,1.40
2023-07-06T07:17:41.624Z,1.40
2023-07-06T07:20:12.127Z,1.40
2023-07-06T07:22:42.537Z,1.40
2023-07-06T07:25:11.136Z,0.90
2023-07-06T07:27:39.605Z,1.10
2023-07-06T07:30:10.112Z,1.20
2023-07-06T07:32:38.121Z,1.20
2023-07-06T07:35:07.939Z,1.20
2023-07-06T07:37:37.384Z,1.20
2023-07-06T07:40:06.525Z,1.10
2023-07-06T07:42:34.567Z,0.90
2023-07-06T07:45:03.629Z,1.20
2023-07-06T07:47:31.589Z,1.00
2023-07-06T07:49:59.489Z,1.55
2023-07-06T07:52:29.890Z,0.90
2023-07-06T07:54:59.411Z,0.93
2023-07-06T07:57:33.221Z,0.90
2023-07-06T08:00:01.103Z,0.70
2023-07-06T08:02:29.372Z,1.08
2023-07-06T08:04:58.452Z,0.85
2023-07-06T08:07:27.233Z,0.90
2023-07-06T08:09:55.412Z,1.02
2023-07-06T08:12:24.860Z,0.90
2023-07-06T08:14:52.890Z,0.82
2023-07-06T08:17:20.822Z,2.95
2023-07-06T08:20:07.246Z,0.80
2023-07-06T08:22:37.425Z,0.90
2023-07-06T08:25:11.320Z,1.08
2023-07-06T08:27:41.820Z,0.75
2023-07-06T08:30:10.638Z,1.15
2023-07-06T08:32:39.149Z,1.05
2023-07-06T08:35:08.983Z,0.85
2023-07-06T08:37:36.972Z,1.40
2023-07-06T08:40:06.074Z,1.15
2023-07-06T08:42:52.922Z,1.13
2023-07-06T08:45:33.149Z,1.30
2023-07-06T08:48:01.919Z,1.20
2023-07-06T08:50:34.115Z,1.02
2023-07-06T08:53:03.347Z,1.10
2023-07-06T08:55:32.567Z,1.10
2023-07-06T08:58:05.731Z,1.20
2023-07-06T09:00:35.211Z,1.08
2023-07-06T09:03:09.165Z,0.90
2023-07-06T09:05:43.021Z,1.40
2023-07-06T09:08:14.296Z,1.20
2023-07-06T09:10:43.082Z,1.20
2023-07-06T09:13:23.686Z,1.02
2023-07-06T09:15:58.604Z,1.10
2023-07-06T09:18:27.142Z,0.98
2023-07-06T09:20:56.045Z,1.30
2023-07-06T09:23:25.578Z,1.10
2023-07-06T09:25:57.558Z,1.20
2023-07-06T09:28:30.344Z,1.30
2023-07-06T09:31:11.565Z,1.73
2023-07-06T09:33:45.388Z,1.17
2023-07-06T09:36:19.435Z,1.08
2023-07-06T09:38:48.525Z,1.23
2023-07-06T09:41:24.631Z,1.02
2023-07-06T09:43:58.877Z,1.27
2023-07-06T09:46:33.900Z,0.82
2023-07-06T09:49:01.874Z,1.42
2023-07-06T09:51:39.706Z,1.10
2023-07-06T09:54:15.860Z,0.98
2023-07-06T09:56:44.380Z,1.10
2023-07-06T10:02:16.974Z,1.05
2023-07-06T10:04:55.239Z,1.17
2023-07-06T10:07:31.728Z,0.95
2023-07-06T10:10:09.910Z,1.17
2023-07-06T10:12:42.571Z,1.30
2023-07-06T10:15:21.396Z,1.10
2023-07-06T10:17:59.600Z,1.08
2023-07-06T10:20:36.365Z,1.27
2023-07-06T10:23:22.469Z,1.20
2023-07-06T10:26:04.457Z,1.20
2023-07-06T10:28:38.350Z,1.30
2023-07-06T10:31:09.865Z,1.13
2023-07-06T10:33:46.849Z,1.52
2023-07-06T10:36:18.109Z,1.25
2023-07-06T10:38:48.179Z,1.25
2023-07-06T10:41:32.484Z,1.30
2023-07-06T10:44:22.577Z,1.20
2023-07-06T10:46:58.658Z,1.10
2023-07-06T10:49:28.574Z,1.30
2023-07-06T10:52:01.376Z,1.15
2023-07-06T10:54:34.582Z,1.35
2023-07-06T10:57:05.588Z,1.20
2023-07-06T10:59:46.673Z,1.33
2023-07-06T11:02:22.415Z,0.90
2023-07-06T11:05:37.374Z,0.90
2023-07-06T11:08:11.823Z,0.88
2023-07-06T11:10:50.155Z,1.15
2023-07-06T11:13:22.919Z,1.00
2023-07-06T11:16:01.243Z,1.38
2023-07-06T11:18:37.604Z,1.30
2023-07-06T11:21:25.541Z,1.20
2023-07-06T11:23:57.270Z,1.10
2023-07-06T11:26:42.614Z,1.15
2023-07-06T11:29:11.583Z,0.90
2023-07-06T11:32:00.276Z,1.25
2023-07-06T11:34:39.893Z,1.13
2023-07-06T11:37:16.184Z,1.45
2023-07-06T11:39:57.589Z,1.08
2023-07-06T11:42:41.304Z,1.40
2023-07-06T11:45:22.726Z,0.98
2023-07-06T11:48:08.111Z,0.90
2023-07-06T11:50:40.393Z,1.13
2023-07-06T11:53:30.657Z,1.08
2023-07-06T11:56:07.124Z,1.40
2023-07-06T11:58:55.372Z,1.17
2023-07-06T12:01:42.698Z,1.00
2023-07-06T12:04:19.315Z,1.02
2023-07-06T12:06:49.200Z,1.20
2023-07-06T12:09:20.939Z,0.85
2023-07-06T12:12:00.628Z,1.08
2023-07-06T12:14:29.518Z,1.15
2023-07-06T12:17:00.197Z,0.90
2023-07-06T12:19:32.091Z,1.10
2023-07-06T12:22:01.124Z,1.00
2023-07-06T12:24:34.281Z,1.13
2023-07-06T12:27:05.600Z,1.20
2023-07-06T12:29:35.501Z,0.95
2023-07-06T12:32:09.272Z,1.05
2023-07-06T12:34:42.087Z,0.88
2023-07-06T12:37:12.283Z,0.90
2023-07-06T12:39:43.877Z,1.02
2023-07-06T12:42:13.593Z,0.93
2023-07-06T12:44:44.258Z,1.13
2023-07-06T12:47:25.905Z,1.00
2023-07-06T12:49:57.543Z,1.02
2023-07-06T12:52:26.158Z,1.00
2023-07-06T12:54:57.786Z,1.30
2023-07-06T12:57:27.849Z,1.00
2023-07-06T12:59:59.261Z,1.40
2023-07-06T13:02:31.553Z,1.17
2023-07-06T13:04:59.643Z,1.40
2023-07-06T13:07:29.535Z,0.90
2023-07-06T13:09:58.877Z,1.02
2023-07-06T13:12:32.779Z,0.90
2023-07-06T13:15:07.468Z,1.10
2023-07-06T13:17:35.450Z,1.10
2023-07-06T13:20:05.505Z,0.93
2023-07-06T13:22:33.400Z,1.30
2023-07-06T13:25:04.565Z,1.40
2023-07-06T13:27:33.796Z,1.08
2023-07-06T13:30:01.765Z,0.88
2023-07-06T13:32:29.777Z,0.82
2023-07-06T13:34:57.763Z,1.00
2023-07-06T13:37:29.875Z,1.10
2023-07-06T13:40:00.945Z,1.00
2023-07-06T13:42:31.347Z,0.80
2023-07-06T13:47:46.999Z,1.00
2023-07-06T13:50:15.500Z,1.10
2023-07-06T13:52:43.523Z,0.85
2023-07-06T13:55:20.630Z,0.90
2023-07-06T13:57:50.191Z,0.80
2023-07-06T14:00:18.923Z,1.10
2023-07-06T14:02:52.311Z,1.20
2023-07-06T14:05:22.437Z,1.20
2023-07-06T14:07:51.023Z,1.17
2023-07-06T14:10:20.538Z,1.00
2023-07-06T14:12:53.891Z,1.17
2023-07-06T14:15:22.884Z,1.20
2023-07-06T14:17:51.892Z,1.15
2023-07-06T14:20:23.797Z,1.00
2023-07-06T14:22:51.867Z,1.30
2023-07-06T14:25:24.841Z,0.90
2023-07-06T14:27:55.933Z,1.20
2023-07-06T14:30:27.600Z,1.10
2023-07-06T14:32:56.977Z,1.42
2023-07-06T14:35:24.986Z,1.38
2023-07-06T14:37:53.661Z,1.35
2023-07-06T14:40:21.576Z,1.02
2023-07-06T14:42:54.058Z,1.00
2023-07-06T14:45:23.881Z,0.80
2023-07-06T14:47:51.766Z,1.05
2023-07-06T14:50:25.306Z,0.85
2023-07-06T14:52:55.025Z,0.98
2023-07-06T14:55:24.540Z,1.00
2023-07-06T14:57:53.189Z,0.95
2023-07-06T15:00:21.392Z,0.80
2023-07-06T15:02:55.536Z,0.90
2023-07-06T15:05:24.302Z,1.02
2023-07-06T15:07:52.493Z,1.30
2023-07-06T15:10:20.876Z,1.02
2023-07-06T15:12:51.457Z,1.20
2023-07-06T15:15:22.727Z,1.20
2023-07-06T15:17:54.813Z,1.15
2023-07-06T15:20:25.582Z,1.20
2023-07-06T15:22:54.342Z,1.15
2023-07-06T15:25:22.299Z,0.90
2023-07-06T15:27:50.517Z,1.35
2023-07-06T15:30:19.616Z,1.00
2023-07-06T15:32:48.169Z,0.85
2023-07-06T15:35:17.887Z,1.10
2023-07-06T15:37:46.139Z,1.05
2023-07-06T15:40:19.431Z,1.20
2023-07-06T15:42:52.004Z,1.05
2023-07-06T15:45:20.413Z,1.00
2023-07-06T15:47:58.091Z,1.08
2023-07-06T15:50:28.565Z,1.35
2023-07-06T15:52:56.629Z,1.10
2023-07-06T15:55:24.931Z,0.90
2023-07-06T15:57:52.933Z,1.00
2023-07-06T16:00:21.649Z,1.00
2023-07-06T16:02:49.663Z,1.40
2023-07-06T16:05:22.584Z,1.10
2023-07-06T16:07:51.960Z,1.00
2023-07-06T16:10:20.096Z,1.10
2023-07-06T16:12:49.032Z,1.20
2023-07-06T16:15:17.059Z,1.20
2023-07-06T16:17:45.128Z,1.10
2023-07-06T16:20:14.194Z,1.08
2023-07-06T16:22:42.137Z,1.05
2023-07-06T16:25:12.068Z,1.30
2023-07-06T16:27:40.166Z,0.90
2023-07-06T16:30:10.011Z,1.20
2023-07-06T16:32:38.534Z,1.20
2023-07-06T16:35:07.217Z,0.93
2023-07-06T16:37:35.727Z,1.30
2023-07-06T16:40:04.425Z,1.25
2023-07-06T16:42:34.238Z,1.05
2023-07-06T16:45:02.594Z,1.33
2023-07-06T16:47:30.897Z,1.35
2023-07-06T16:49:59.752Z,1.48
2023-07-06T16:52:31.151Z,1.20
2023-07-06T16:55:00.789Z,1.30
2023-07-06T16:57:29.427Z,1.65
2023-07-06T16:59:58.896Z,1.30
2023-07-06T17:02:26.888Z,1.10
2023-07-06T17:04:54.936Z,1.30
2023-07-06T17:07:24.674Z,1.00
2023-07-06T17:09:52.706Z,1.17
2023-07-06T17:12:21.318Z,1.40
2023-07-06T17:14:50.190Z,1.20
2023-07-06T17:17:19.551Z,1.05
2023-07-06T17:19:47.561Z,1.27
2023-07-06T17:22:15.528Z,1.10
2023-07-06T17:24:43.571Z,1.08
2023-07-06T17:27:11.669Z,1.30
2023-07-06T17:29:39.627Z,1.20
2023-07-06T17:32:08.497Z,1.63
2023-07-06T17:34:37.856Z,1.33
2023-07-06T17:37:06.516Z,1.30
2023-07-06T17:39:34.434Z,1.25
2023-07-06T17:42:02.409Z,1.30
2023-07-06T17:44:30.561Z,1.55
2023-07-06T17:46:58.668Z,0.95
2023-07-06T17:49:26.827Z,1.33
2023-07-06T17:51:56.299Z,1.05
2023-07-06T17:54:24.566Z,1.40
2023-07-06T17:56:53.290Z,1.80
2023-07-06T17:59:21.762Z,1.13
2023-07-06T18:01:50.468Z,1.38
2023-07-06T18:04:18.848Z,1.00
2023-07-06T18:06:47.029Z,0.95
2023-07-06T18:09:17.635Z,1.08
2023-07-06T18:11:45.973Z,1.00
2023-07-06T18:14:14.221Z,1.17
2023-07-06T18:16:42.280Z,1.33
2023-07-06T18:19:10.585Z,1.48
2023-07-06T18:21:38.716Z,1.30
2023-07-06T18:24:07.157Z,1.55
2023-07-06T18:26:36.568Z,1.30
2023-07-06T18:29:04.590Z,0.98
2023-07-06T18:31:32.746Z,1.20
2023-07-06T18:34:00.785Z,1.20
2023-07-06T18:36:30.888Z,1.10
2023-07-06T18:38:58.811Z,1.23
2023-07-06T18:41:26.735Z,1.05
2023-07-06T18:43:56.143Z,1.40
2023-07-06T18:46:24.162Z,1.65
2023-07-06T18:48:52.140Z,1.40
2023-07-06T18:51:19.990Z,1.38
2023-07-06T18:53:47.987Z,1.60
2023-07-06T18:56:16.203Z,1.33
2023-07-06T18:58:44.329Z,1.75
2023-07-06T19:01:13.934Z,1.20
2023-07-06T19:03:42.564Z,1.52
2023-07-06T19:08:42.704Z,1.73
2023-07-06T19:11:13.530Z,1.73
2023-07-06T19:13:42.128Z,1.77
2023-07-06T19:16:10.634Z,1.30
2023-07-06T19:18:40.673Z,1.35
2023-07-06T19:21:10.434Z,1.48
2023-07-06T19:23:38.448Z,1.48
2023-07-06T19:26:06.480Z,1.92
2023-07-06T19:28:34.606Z,2.08
2023-07-06T19:31:02.688Z,1.67
2023-07-06T19:33:30.532Z,1.75
2023-07-06T19:36:00.140Z,1.40
2023-07-06T19:38:28.318Z,2.10
2023-07-06T19:40:57.656Z,1.98
2023-07-06T19:43:25.933Z,1.80
2023-07-06T19:45:55.785Z,1.90
2023-07-06T19:48:27.415Z,1.98
2023-07-06T19:50:57.306Z,2.00
2023-07-06T19:53:27.783Z,2.00
2023-07-06T19:55:57.881Z,1.90
2023-07-06T19:58:26.328Z,2.40
2023-07-06T20:00:58.223Z,1.88
2023-07-06T20:03:27.689Z,1.80
2023-07-06T20:06:00.192Z,1.73
2023-07-06T20:08:30.465Z,1.80
2023-07-06T20:11:01.583Z,2.20
2023-07-06T20:13:31.981Z,1.95
2023-07-06T20:16:01.980Z,2.10
2023-07-06T20:18:30.472Z,2.28
2023-07-06T20:20:58.592Z,1.90
2023-07-06T20:23:27.021Z,2.20
2023-07-06T20:25:56.513Z,2.00
2023-07-06T20:28:25.506Z,2.22
2023-07-06T20:30:53.965Z,2.50
2023-07-06T20:33:22.871Z,2.00
2023-07-06T20:35:51.072Z,1.80
2023-07-06T20:38:19.601Z,2.20
2023-07-06T20:40:47.485Z,2.28
2023-07-06T20:43:16.786Z,2.50
2023-07-06T20:45:45.599Z,2.33
2023-07-06T20:48:13.806Z,2.45
2023-07-06T20:50:41.893Z,2.53
2023-07-06T20:53:09.921Z,2.78
2023-07-06T20:55:38.012Z,2.80
2023-07-06T20:58:05.956Z,2.70
2023-07-06T21:00:37.210Z,2.47
2023-07-06T21:03:06.928Z,2.67
2023-07-06T21:05:34.977Z,2.72
2023-07-06T21:08:03.874Z,2.53
2023-07-06T21:10:32.036Z,2.88
2023-07-06T21:13:00.987Z,2.58
2023-07-06T21:15:29.135Z,2.83
2023-07-06T21:17:58.397Z,3.08
2023-07-06T21:20:26.287Z,3.10
2023-07-06T21:22:54.266Z,3.15
2023-07-06T21:25:22.165Z,2.80
2023-07-06T21:27:50.189Z,3.03
2023-07-06T21:30:19.947Z,3.63
2023-07-06T21:32:47.843Z,2.78
2023-07-06T21:35:17.252Z,3.05
2023-07-06T21:37:45.141Z,2.80
2023-07-06T21:40:13.975Z,2.90
2023-07-06T21:42:41.817Z,3.25
2023-07-06T21:45:10.203Z,2.88
2023-07-06T21:47:38.485Z,3.53
2023-07-06T21:50:07.028Z,2.83
2023-07-06T21:52:36.227Z,2.92
2023-07-06T21:55:04.451Z,2.90
2023-07-06T21:57:32.440Z,2.65
2023-07-06T22:00:00.428Z,3.03
2023-07-06T22:02:28.435Z,2.80
2023-07-06T22:04:56.362Z,2.63
2023-07-06T22:07:24.349Z,2.65
2023-07-06T22:09:53.668Z,3.22
2023-07-06T22:12:21.627Z,2.83
2023-07-06T22:14:49.661Z,3.15
2023-07-06T22:17:20.211Z,3.00
2023-07-06T22:19:48.148Z,3.50
2023-07-06T22:22:16.335Z,3.42
2023-07-06T22:24:44.360Z,2.92
2023-07-06T22:27:14.097Z,2.88
2023-07-06T22:29:43.157Z,3.63
2023-07-06T22:32:12.191Z,3.30
2023-07-06T22:34:40.074Z,3.20
2023-07-06T22:37:07.948Z,3.17
2023-07-06T22:39:36.628Z,2.95
2023-07-06T22:42:04.905Z,3.08
2023-07-06T22:44:34.308Z,3.30
2023-07-06T22:47:04.595Z,2.95
2023-07-06T22:49:32.444Z,2.85
2023-07-06T22:52:02.100Z,3.10
2023-07-06T22:54:30.173Z,2.90
2023-07-06T22:56:57.983Z,3.33
2023-07-06T22:59:26.093Z,3.40
2023-07-06T23:01:55.452Z,3.70
2023-07-06T23:04:23.614Z,3.40
2023-07-06T23:06:51.473Z,3.17
2023-07-06T23:09:19.313Z,2.95
2023-07-06T23:11:48.485Z,3.50
2023-07-06T23:14:16.485Z,3.03
2023-07-06T23:16:46.989Z,3.40
2023-07-06T23:19:17.070Z,3.65
2023-07-06T23:21:44.930Z,3.58
2023-07-06T23:24:12.823Z,2.60
2023-07-06T23:26:40.713Z,2.92
2023-07-06T23:29:13.149Z,2.25
2023-07-06T23:31:43.631Z,2.25
2023-07-06T23:34:12.624Z,1.80
2023-07-06T23:36:42.135Z,3.90
2023-07-06T23:39:09.904Z,3.97
2023-07-06T23:41:38.626Z,3.88
2023-07-06T23:44:06.589Z,3.33
2023-07-06T23:46:34.533Z,3.95
2023-07-06T23:49:02.389Z,3.55
2023-07-06T23:51:30.261Z,3.38
2023-07-06T23:53:59.475Z,3.45
2023-07-06T23:56:29.549Z,3.13
2023-07-06T23:58:57.389Z,4.25
